This is the latest recevied weather packets stored in our database for station/object YO6FNF-10. If no packets are shown the sender has not sent any weather packets the latest 10 day(s).
| Time | Temp. | Humidity | Pressure | Rain* | Wind** | Luminosity | Snow |
|---|---|---|---|---|---|---|---|
| 1777728586 | 10° C | 57% | 1024.1 hPa | - | - | - | - |
| 1777727686 | 10.56° C | 57% | 1024.1 hPa | - | - | - | - |
| 1777726786 | 10° C | 56% | 1024.2 hPa | - | - | - | - |
| 1777725886 | 10.56° C | 57% | 1024.4 hPa | - | - | - | - |
| 1777724985 | 10° C | 59% | 1024.4 hPa | - | - | - | - |
| 1777724085 | 11.11° C | 54% | 1024.4 hPa | - | - | - | - |
| 1777723185 | 10.56° C | 58% | 1024.4 hPa | - | - | - | - |
| 1777722285 | 10° C | 60% | 1024.4 hPa | - | - | - | - |
| 1777721385 | 10° C | 57% | 1024.2 hPa | - | - | - | - |
| 1777720484 | 10° C | 61% | 1024.1 hPa | - | - | - | - |
| 1777719584 | 9.44° C | 60% | 1024.2 hPa | - | - | - | - |
| 1777718684 | 10.56° C | 55% | 1024.2 hPa | - | - | - | - |
| 1777717784 | 11.67° C | 44% | 1024.2 hPa | - | - | - | - |
| 1777716884 | 13.33° C | 41% | 1024.2 hPa | - | - | - | - |
| 1777715984 | 13.33° C | 45% | 1024.4 hPa | - | - | - | - |
| 1777715083 | 12.78° C | 46% | 1024.6 hPa | - | - | - | - |
| 1777714183 | 11.11° C | 50% | 1024.8 hPa | - | - | - | - |
| 1777713283 | 10° C | 51% | 1025 hPa | - | - | - | - |
| 1777712383 | 8.89° C | 52% | 1025.1 hPa | - | - | - | - |
| 1777711483 | 8.89° C | 54% | 1025.3 hPa | - | - | - | - |
| 1777710582 | 9.44° C | 49% | 1025.1 hPa | - | - | - | - |
| 1777709682 | 10° C | 45% | 1025 hPa | - | - | - | - |
| 1777708782 | 10.56° C | 44% | 1024.8 hPa | - | - | - | - |
| 1777707882 | 11.11° C | 42% | 1024.7 hPa | - | - | - | - |
| 1777706982 | 10.56° C | 45% | 1024.7 hPa | - | - | - | - |
* Rain since midnight (hover to see other rain measurements)
** Current wind speed in m/s (hover to see current wind gust speed)